Time;durP1;ratioP1;P1;durP2;ratioP2;P2;SDS_P1;SDS_P2;PMS_P1;PMS_P2;Temp;Humidity;BMP_temperature;BMP_pressure;BME280_temperature;BME280_humidity;BME280_pressure;Samples;Min_cycle;Max_cycle;Signal;HPM_P1;HPM_P2
2020/12/16 09:11:27;;;;;;;30.10;15.53;;;;;;;4.20;76.67;99593.37;125935;1096;104483;-70
2020/12/16 09:13:58;;;;;;;31.33;15.70;;;;;;;4.20;77.08;99601.27;125749;1096;106279;-70
2020/12/16 09:16:27;;;;;;;32.57;16.70;;;;;;;4.20;76.66;99606.53;125736;1096;104510;-71
2020/12/16 09:18:55;;;;;;;32.57;15.50;;;;;;;4.22;77.06;99599.44;126572;1096;104394;-72
2020/12/16 09:21:36;;;;;;;30.73;15.73;;;;;;;4.22;76.75;99602.91;125769;1096;104449;-71
2020/12/16 09:24:05;;;;;;;29.25;14.95;;;;;;;4.24;76.79;99602.88;125749;1096;104446;-71
2020/12/16 09:26:38;;;;;;;30.80;15.90;;;;;;;4.26;77.05;99607.15;125834;1096;104465;-72
2020/12/16 09:29:21;;;;;;;33.83;17.57;;;;;;;4.27;76.67;99589.59;125688;1094;104986;-74
2020/12/16 09:31:50;;;;;;;30.10;15.50;;;;;;;4.29;76.68;99595.63;125733;1096;104468;-71
2020/12/16 09:34:19;;;;;;;30.70;15.53;;;;;;;4.31;76.69;99599.05;125697;1096;101979;-71
2020/12/16 09:36:46;;;;;;;30.10;16.50;;;;;;;4.31;76.87;99594.67;126013;1101;104424;-71
2020/12/16 09:39:19;;;;;;;32.90;16.77;;;;;;;4.33;76.76;99584.05;125907;1101;104491;-71
2020/12/16 09:41:50;;;;;;;34.18;18.82;;;;;;;4.36;76.78;99591.84;125740;1102;104547;-70
2020/12/16 09:44:31;;;;;;;30.77;16.47;;;;;;;4.40;76.66;99588.17;125891;1101;104500;-70
2020/12/16 09:47:15;;;;;;;33.47;18.87;;;;;;;4.39;76.67;99582.98;125820;1101;104538;-70
2020/12/16 09:50:00;;;;;;;32.45;16.75;;;;;;;4.39;76.50;99591.72;125808;1101;104484;-71
2020/12/16 09:52:33;;;;;;;31.40;17.13;;;;;;;4.38;76.67;99590.01;125961;1101;104672;-68
2020/12/16 09:55:20;;;;;;;29.40;15.67;;;;;;;4.42;76.68;99591.61;125938;1101;104426;-70
2020/12/16 09:57:59;;;;;;;31.17;15.97;;;;;;;4.45;76.52;99590.65;125851;1102;104478;-70
2020/12/16 10:00:27;;;;;;;31.27;17.07;;;;;;;4.47;76.94;99592.30;125808;1102;104885;-70
2020/12/16 10:03:04;;;;;;;32.70;16.53;;;;;;;4.50;76.85;99593.09;125884;1102;104551;-71
2020/12/16 10:05:35;;;;;;;32.23;17.07;;;;;;;4.46;76.74;99592.36;125834;1101;104417;-74
2020/12/16 10:08:09;;;;;;;34.00;17.77;;;;;;;4.47;76.59;99592.30;125821;1102;104417;-73
2020/12/16 10:10:40;;;;;;;32.28;17.62;;;;;;;4.52;76.89;99593.89;126032;1096;104564;-71
2020/12/16 10:13:07;;;;;;;33.57;17.20;;;;;;;4.53;76.51;99585.91;125967;1096;104587;-72
2020/12/16 10:15:34;;;;;;;33.67;18.10;;;;;;;4.56;76.55;99593.70;125870;1102;104436;-71
2020/12/16 10:18:01;;;;;;;33.70;17.60;;;;;;;4.59;76.86;99590.94;125928;1101;104458;-71
2020/12/16 10:20:31;;;;;;;27.55;13.03;;;;;;;4.64;76.70;99597.81;125827;1101;104481;-72
2020/12/16 10:22:58;;;;;;;32.03;16.63;;;;;;;4.66;76.52;99588.94;125918;1101;104442;-71
2020/12/16 10:25:26;;;;;;;32.03;18.80;;;;;;;4.66;76.39;99586.30;125873;1101;104506;-72
2020/12/16 10:27:55;;;;;;;29.23;15.80;;;;;;;4.74;76.52;99593.89;125919;1101;104532;-73
2020/12/16 10:30:26;;;;;;;30.97;16.97;;;;;;;4.79;76.65;99601.61;125904;1101;104566;-72
2020/12/16 10:32:57;;;;;;;37.35;18.20;;;;;;;4.79;76.54;99604.23;125872;1101;104480;-73
2020/12/16 10:35:24;;;;;;;32.63;17.53;;;;;;;4.79;76.39;99598.97;125880;1101;104465;-72
2020/12/16 10:37:55;;;;;;;32.57;17.07;;;;;;;4.78;76.40;99606.03;125855;1101;104490;-73
2020/12/16 10:40:22;;;;;;;33.60;15.73;;;;;;;4.76;76.64;99607.88;125885;1102;104449;-72
2020/12/16 10:42:49;;;;;;;34.50;17.30;;;;;;;4.75;76.44;99595.61;125847;1097;104545;-73
2020/12/16 10:45:18;;;;;;;33.40;17.23;;;;;;;4.75;76.43;99600.88;125782;1101;104423;-74
2020/12/16 10:47:45;;;;;;;35.73;17.83;;;;;;;4.76;76.08;99597.33;125962;1101;104426;-73
2020/12/16 10:50:12;;;;;;;32.37;17.70;;;;;;;4.75;76.62;99601.73;125838;1101;104493;-75
2020/12/16 10:52:39;;;;;;;32.90;18.03;;;;;;;4.76;76.38;99595.53;125935;1102;104472;-71
2020/12/16 10:55:07;;;;;;;33.27;17.27;;;;;;;4.78;76.55;99598.13;125852;1101;104564;-71
2020/12/16 10:57:34;;;;;;;35.00;18.20;;;;;;;4.77;76.69;99593.77;125900;1101;104929;-73
2020/12/16 11:00:01;;;;;;;33.57;17.33;;;;;;;4.78;76.45;99587.58;125987;1101;104490;-72
2020/12/16 11:02:28;;;;;;;34.25;16.50;;;;;;;4.76;76.56;99592.90;125978;1101;104478;-71
2020/12/16 11:04:56;;;;;;;32.43;16.20;;;;;;;4.73;76.23;99590.38;125960;1096;103275;-73
2020/12/16 11:07:23;;;;;;;34.88;17.57;;;;;;;4.73;76.48;99587.75;125772;1096;104555;-72
2020/12/16 11:09:50;;;;;;;34.17;17.20;;;;;;;4.70;76.37;99579.13;125559;1096;104432;-73
2020/12/16 11:12:17;;;;;;;36.10;18.98;;;;;;;4.69;76.22;99588.79;125689;1096;104459;-72
2020/12/16 11:14:47;;;;;;;35.03;18.73;;;;;;;4.67;76.28;99588.02;125814;1096;104442;-73
2020/12/16 11:17:14;;;;;;;34.20;17.55;;;;;;;4.69;76.48;99582.67;125846;1096;104554;-73
2020/12/16 11:19:41;;;;;;;35.77;18.50;;;;;;;4.72;76.35;99587.83;125765;1095;104535;-73
2020/12/16 11:22:08;;;;;;;39.50;18.63;;;;;;;4.74;76.41;99583.36;125646;1096;104600;-73
2020/12/16 11:24:34;;;;;;;34.10;18.40;;;;;;;4.73;76.27;99587.75;125705;1096;104591;-74
2020/12/16 11:27:02;;;;;;;37.27;19.03;;;;;;;4.75;76.31;99596.45;125800;1096;104465;-73
2020/12/16 11:29:29;;;;;;;34.50;18.83;;;;;;;4.75;76.48;99593.81;125757;1096;104580;-73
2020/12/16 11:32:03;;;;;;;35.77;18.23;;;;;;;4.75;76.53;99591.19;125804;1096;104484;-74
2020/12/16 11:34:33;;;;;;;35.85;20.08;;;;;;;4.76;76.27;99592.06;125753;1096;104531;-73
2020/12/16 11:37:03;;;;;;;35.27;18.30;;;;;;;4.77;76.29;99589.34;125896;1096;104487;-73
2020/12/16 11:39:30;;;;;;;36.93;18.77;;;;;;;4.79;76.34;99591.94;125807;1096;104442;-71
2020/12/16 11:41:58;;;;;;;41.53;21.73;;;;;;;4.80;76.19;99601.56;125700;1096;104961;-72
2020/12/16 11:44:26;;;;;;;37.13;18.57;;;;;;;4.79;76.25;99597.20;125804;1096;104545;-72
2020/12/16 11:46:58;;;;;;;39.13;18.83;;;;;;;4.80;76.15;99592.78;125692;1097;104510;-73
2020/12/16 11:49:26;;;;;;;35.90;19.37;;;;;;;4.79;76.31;99599.84;125825;1096;104485;-73
2020/12/16 11:51:56;;;;;;;33.00;16.95;;;;;;;4.81;76.26;99595.37;125808;1096;105512;-73
2020/12/16 11:54:23;;;;;;;38.50;20.53;;;;;;;4.83;76.43;99592.66;125863;1101;105054;-74
2020/12/16 11:56:50;;;;;;;38.87;19.23;;;;;;;4.88;76.32;99595.97;125824;1101;104525;-72
2020/12/16 11:59:27;;;;;;;34.53;17.67;;;;;;;4.95;76.19;99597.44;125847;1101;104423;-73
2020/12/16 12:02:04;;;;;;;37.60;19.30;;;;;;;5.02;76.39;99592.76;125822;1101;104426;-72
2020/12/16 12:04:33;;;;;;;35.20;18.33;;;;;;;5.08;76.45;99581.95;125863;1102;105076;-72
2020/12/16 12:07:00;;;;;;;35.73;17.17;;;;;;;5.15;76.44;99585.19;125743;1101;104592;-72
2020/12/16 12:09:27;;;;;;;35.50;18.53;;;;;;;5.18;76.39;99580.66;125939;1101;104487;-72
2020/12/16 12:11:54;;;;;;;34.13;17.90;;;;;;;5.20;76.14;99584.09;125825;1102;104496;-71
2020/12/16 12:14:22;;;;;;;37.75;19.65;;;;;;;5.25;76.08;99586.52;125895;1102;104481;-72
2020/12/16 12:16:53;;;;;;;31.83;16.73;;;;;;;5.28;76.15;99594.31;125938;1102;104484;-71
2020/12/16 12:19:24;;;;;;;35.88;17.73;;;;;;;5.29;76.43;99595.18;125847;1101;104554;-72
2020/12/16 12:21:51;;;;;;;29.40;15.97;;;;;;;5.35;76.15;99602.80;125871;1102;104424;-72
2020/12/16 12:24:18;;;;;;;33.90;16.50;;;;;;;5.33;76.04;99597.61;125864;1102;104487;-73
2020/12/16 12:26:46;;;;;;;35.45;17.10;;;;;;;5.32;76.32;99592.38;125846;1101;104554;-73
2020/12/16 12:29:13;;;;;;;30.93;16.27;;;;;;;5.29;75.75;99603.94;125849;1101;104442;-73
2020/12/16 12:31:43;;;;;;;33.53;16.80;;;;;;;5.26;76.16;99604.06;125859;1102;103291;-73
2020/12/16 12:34:13;;;;;;;31.23;15.83;;;;;;;5.23;76.07;99601.55;125900;1101;104424;-71
2020/12/16 12:36:41;;;;;;;33.10;16.03;;;;;;;5.20;75.79;99606.95;125815;1101;104450;-70
2020/12/16 12:39:08;;;;;;;34.93;16.53;;;;;;;5.15;76.00;99606.28;125877;1101;104487;-71
2020/12/16 12:41:35;;;;;;;33.90;16.23;;;;;;;5.11;75.89;99604.69;125867;1101;104637;-72
2020/12/16 12:44:02;;;;;;;31.53;16.07;;;;;;;5.06;75.94;99611.05;125789;1102;104525;-72
2020/12/16 12:46:30;;;;;;;31.53;16.43;;;;;;;5.04;76.07;99609.38;125858;1101;104509;-71
2020/12/16 12:48:58;;;;;;;33.60;17.67;;;;;;;5.02;75.69;99609.45;125855;1102;104420;-72
2020/12/16 12:51:28;;;;;;;33.40;16.90;;;;;;;4.97;75.96;99610.54;125916;1102;104528;-72
2020/12/16 12:53:57;;;;;;;33.50;17.63;;;;;;;4.94;75.79;99615.94;125905;1101;104659;-72
2020/12/16 12:56:26;;;;;;;34.60;17.50;;;;;;;4.91;76.00;99615.14;125907;1101;104529;-73
2020/12/16 12:58:58;;;;;;;37.07;18.43;;;;;;;4.89;75.75;99611.70;125893;1096;104455;-72
2020/12/16 13:01:25;;;;;;;35.60;17.77;;;;;;;4.88;75.91;99615.30;125986;1101;104500;-72
2020/12/16 13:03:52;;;;;;;37.93;19.35;;;;;;;4.87;75.83;99620.61;125991;1101;104440;-72
2020/12/16 13:06:19;;;;;;;37.47;19.30;;;;;;;4.86;75.71;99614.50;125894;1101;104500;-72
2020/12/16 13:08:49;;;;;;;41.17;20.37;;;;;;;4.84;75.72;99616.33;125882;1101;104532;-72
2020/12/16 13:11:17;;;;;;;42.07;19.97;;;;;;;4.81;75.86;99613.82;125986;1101;104561;-73
2020/12/16 13:13:43;;;;;;;38.70;20.15;;;;;;;4.79;75.58;99614.78;125860;1101;104552;-73
2020/12/16 13:16:10;;;;;;;42.43;21.90;;;;;;;4.75;75.77;99619.33;125884;1102;104570;-72
2020/12/16 13:18:37;;;;;;;40.55;20.20;;;;;;;4.74;75.74;99623.73;125752;1096;104564;-71
2020/12/16 13:21:06;;;;;;;40.97;20.57;;;;;;;4.68;75.85;99621.36;125694;1102;104503;-72
2020/12/16 13:23:36;;;;;;;44.57;21.67;;;;;;;4.65;75.78;99617.97;125745;1096;104554;-71
2020/12/16 13:26:03;;;;;;;42.05;22.50;;;;;;;4.64;75.52;99618.89;125706;1097;104469;-72
2020/12/16 13:28:30;;;;;;;41.60;20.83;;;;;;;4.61;75.58;99623.36;125794;1097;104425;-73
2020/12/16 13:31:02;;;;;;;38.63;20.37;;;;;;;4.61;75.73;99633.06;125762;1096;105108;-74
2020/12/16 13:33:35;;;;;;;39.77;20.87;;;;;;;4.56;75.84;99622.67;125790;1101;104510;-74
2020/12/16 13:36:02;;;;;;;36.47;19.37;;;;;;;4.56;75.63;99619.20;125816;1097;104423;-73
2020/12/16 13:38:29;;;;;;;39.55;20.45;;;;;;;4.57;75.68;99618.28;125742;1095;104491;-74
2020/12/16 13:41:01;;;;;;;40.77;21.10;;;;;;;4.55;75.66;99617.48;125806;1096;104542;-74
2020/12/16 13:43:29;;;;;;;41.97;21.37;;;;;;;4.53;75.45;99608.78;125741;1096;104439;-74
2020/12/16 13:45:56;;;;;;;41.95;21.40;;;;;;;4.54;75.50;99613.13;125718;1096;104554;-73
2020/12/16 13:48:26;;;;;;;40.60;20.70;;;;;;;4.53;75.91;99606.98;125756;1096;104940;-73
2020/12/16 13:50:53;;;;;;;37.00;19.27;;;;;;;4.52;75.38;99605.27;125724;1096;104984;-72
2020/12/16 13:53:20;;;;;;;38.20;19.90;;;;;;;4.51;75.72;99611.45;125757;1096;104465;-74
2020/12/16 13:55:47;;;;;;;37.70;19.00;;;;;;;4.50;76.09;99608.90;125813;1096;104644;-72
2020/12/16 13:58:14;;;;;;;41.37;18.70;;;;;;;4.48;75.45;99616.88;125675;1101;104414;-73
2020/12/16 14:00:41;;;;;;;35.03;19.43;;;;;;;4.44;75.72;99604.73;125658;1101;104869;-73
2020/12/16 14:03:10;;;;;;;41.43;17.83;;;;;;;4.39;75.12;99610.16;125833;1102;104608;-71
2020/12/16 14:05:40;;;;;;;37.08;19.02;;;;;;;4.36;75.38;99612.07;126035;1101;104445;-75
2020/12/16 14:08:07;;;;;;;42.27;20.00;;;;;;;4.31;75.31;99606.95;125865;1096;104597;-72
2020/12/16 14:10:34;;;;;;;37.40;18.53;;;;;;;4.27;75.37;99610.66;125833;1101;104432;-70
2020/12/16 14:13:03;;;;;;;38.63;19.17;;;;;;;4.23;75.58;99607.27;125855;1102;104420;-73
2020/12/16 14:15:30;;;;;;;37.83;19.47;;;;;;;4.21;75.59;99602.98;125776;1101;104581;-74
2020/12/16 14:17:58;;;;;;;42.67;22.00;;;;;;;4.16;75.37;99597.87;125842;1101;104506;-72
2020/12/16 14:20:26;;;;;;;35.63;18.80;;;;;;;4.12;75.22;99607.67;125803;1102;104660;-72
2020/12/16 14:22:55;;;;;;;39.23;20.00;;;;;;;4.10;75.36;99598.09;125818;1101;104877;-72
2020/12/16 14:25:24;;;;;;;41.30;20.50;;;;;;;4.09;75.82;99601.64;125825;1101;104484;-73
2020/12/16 14:27:51;;;;;;;35.70;18.00;;;;;;;4.08;75.49;99607.83;125791;1102;104512;-72
2020/12/16 14:30:18;;;;;;;34.63;17.35;;;;;;;4.05;75.80;99607.97;125856;1102;104560;-72
2020/12/16 14:32:44;;;;;;;37.90;19.47;;;;;;;4.02;75.54;99612.43;125757;1097;104487;-72
2020/12/16 14:35:16;;;;;;;38.65;18.00;;;;;;;3.99;75.25;99611.67;125871;1101;104506;-72
2020/12/16 14:37:45;;;;;;;38.63;19.30;;;;;;;3.94;75.69;99605.70;125695;1097;104583;-72
2020/12/16 14:40:12;;;;;;;39.43;19.80;;;;;;;3.94;75.36;99610.97;125662;1096;104504;-73
2020/12/16 14:42:39;;;;;;;38.28;18.82;;;;;;;3.92;75.90;99604.91;125878;1097;105063;-73
2020/12/16 14:45:07;;;;;;;40.10;21.05;;;;;;;3.90;75.31;99609.36;125721;1101;104486;-72
2020/12/16 14:47:36;;;;;;;44.00;21.63;;;;;;;3.90;75.68;99619.89;126388;1096;104417;-72
2020/12/16 14:50:07;;;;;;;39.20;21.83;;;;;;;3.90;75.74;99617.27;125840;1096;104874;-72
2020/12/16 14:52:35;;;;;;;41.97;22.30;;;;;;;3.88;75.86;99619.97;125764;1096;104484;-73
2020/12/16 14:55:04;;;;;;;40.47;22.10;;;;;;;3.87;75.32;99619.09;125794;1096;104432;-73
2020/12/16 14:57:31;;;;;;;41.97;23.10;;;;;;;3.86;75.46;99620.03;125803;1096;104436;-72
2020/12/16 14:59:58;;;;;;;44.80;25.07;;;;;;;3.87;75.62;99620.87;125700;1097;104512;-72
2020/12/16 15:02:25;;;;;;;46.67;24.00;;;;;;;3.86;75.48;99621.79;125808;1097;104414;-72
2020/12/16 15:04:52;;;;;;;49.60;26.50;;;;;;;3.86;75.41;99624.42;125811;1096;104557;-73
2020/12/16 15:07:19;;;;;;;54.67;27.10;;;;;;;3.83;75.95;99627.16;125750;1096;104583;-73
2020/12/16 15:09:46;;;;;;;48.90;26.05;;;;;;;3.83;75.66;99633.30;125878;1096;104548;-72
2020/12/16 15:12:13;;;;;;;48.33;26.77;;;;;;;3.82;75.29;99626.31;125830;1096;104551;-73
2020/12/16 15:14:40;;;;;;;45.20;24.10;;;;;;;3.77;75.74;99628.25;125849;1096;104611;-74
2020/12/16 15:17:07;;;;;;;45.10;24.57;;;;;;;3.71;75.11;99633.73;125823;1096;104935;-73
2020/12/16 15:19:36;;;;;;;43.93;24.13;;;;;;;3.67;75.74;99632.12;125790;1101;104901;-73
2020/12/16 15:22:05;;;;;;;41.30;22.90;;;;;;;3.64;75.68;99635.73;125742;1096;104522;-72
2020/12/16 15:24:32;;;;;;;45.60;23.97;;;;;;;3.63;75.67;99628.75;125828;1096;104430;-72
2020/12/16 15:26:59;;;;;;;44.07;24.57;;;;;;;3.61;75.89;99633.20;125775;1097;104449;-73
2020/12/16 15:29:26;;;;;;;46.37;24.67;;;;;;;3.60;75.36;99641.13;125748;1095;104429;-73
2020/12/16 15:31:57;;;;;;;47.80;25.43;;;;;;;3.61;75.81;99648.11;125831;1096;104583;-72
2020/12/16 15:34:27;;;;;;;47.97;26.03;;;;;;;3.62;75.90;99647.20;125778;1096;104524;-73
2020/12/16 15:37:00;;;;;;;44.07;24.47;;;;;;;3.63;75.39;99644.53;125834;1096;104391;-72
2020/12/16 15:39:30;;;;;;;48.33;26.60;;;;;;;3.62;75.46;99644.57;125809;1096;104426;-73
2020/12/16 15:41:58;;;;;;;47.67;26.03;;;;;;;3.62;75.58;99647.20;125837;1096;104458;-73
2020/12/16 15:44:28;;;;;;;47.50;27.13;;;;;;;3.60;75.46;99643.77;125764;1096;104452;-71
2020/12/16 15:46:57;;;;;;;56.37;28.50;;;;;;;3.59;75.52;99650.81;125675;1096;104468;-72
2020/12/16 15:49:24;;;;;;;53.20;27.80;;;;;;;3.60;75.69;99649.90;125798;1096;104418;-73
2020/12/16 15:51:56;;;;;;;55.45;29.30;;;;;;;3.64;75.43;99650.64;125779;1097;104541;-74
2020/12/16 15:54:25;;;;;;;55.57;28.50;;;;;;;3.64;75.41;99653.27;125773;1096;104551;-72
2020/12/16 15:56:52;;;;;;;57.33;29.67;;;;;;;3.62;75.32;99645.45;125740;1101;104494;-72
2020/12/16 15:59:19;;;;;;;54.07;29.50;;;;;;;3.64;75.31;99650.64;125752;1096;104439;-73
2020/12/16 16:01:46;;;;;;;61.53;31.30;;;;;;;3.64;75.35;99656.78;125819;1096;104506;-72
2020/12/16 16:04:13;;;;;;;55.57;28.77;;;;;;;3.63;75.45;99660.31;125836;1096;104554;-73
2020/12/16 16:06:40;;;;;;;59.95;30.25;;;;;;;3.63;75.58;99667.34;125910;1102;104554;-74
2020/12/16 16:09:08;;;;;;;54.73;30.20;;;;;;;3.61;75.61;99664.77;125682;1096;104624;-74
2020/12/16 16:11:35;;;;;;;63.23;33.00;;;;;;;3.60;75.56;99675.33;125717;1096;104394;-72
2020/12/16 16:14:04;;;;;;;61.17;31.53;;;;;;;3.57;75.40;99669.26;125673;1096;104513;-73
2020/12/16 16:16:32;;;;;;;60.73;31.77;;;;;;;3.55;75.42;99671.08;126006;1095;104417;-73
2020/12/16 16:18:59;;;;;;;63.53;33.90;;;;;;;3.55;75.21;99675.50;125702;1096;104797;-73
2020/12/16 16:21:37;;;;;;;62.03;32.90;;;;;;;3.55;75.67;99676.34;125726;1101;104506;-73
2020/12/16 16:24:07;;;;;;;62.33;32.98;;;;;;;3.55;74.94;99675.50;125931;1101;104419;-72
2020/12/16 16:26:36;;;;;;;60.13;31.37;;;;;;;3.52;75.63;99680.86;125711;1096;104510;-72
2020/12/16 16:29:07;;;;;;;60.57;31.10;;;;;;;3.49;75.37;99681.80;125823;1096;104484;-72
2020/12/16 16:31:36;;;;;;;54.20;29.73;;;;;;;3.49;75.29;99680.96;125929;1096;104854;-73
2020/12/16 16:34:15;;;;;;;56.27;29.63;;;;;;;3.43;75.41;99693.41;125687;1096;104426;-72
2020/12/16 16:36:47;;;;;;;57.00;30.83;;;;;;;3.42;75.23;99685.58;125831;1096;104430;-72
2020/12/16 16:39:15;;;;;;;52.63;28.80;;;;;;;3.42;75.58;99693.47;125759;1097;104557;-72
2020/12/16 16:41:52;;;;;;;52.17;26.70;;;;;;;3.41;75.22;99686.48;125872;1096;104432;-72
2020/12/16 16:44:21;;;;;;;51.93;28.07;;;;;;;3.38;74.83;99682.17;125645;1096;104419;-73
2020/12/16 16:46:48;;;;;;;48.57;24.63;;;;;;;3.40;75.52;99687.40;125749;1096;103274;-71
2020/12/16 16:49:16;;;;;;;51.83;26.80;;;;;;;3.38;75.63;99681.33;125417;1096;104577;-79
2020/12/16 16:51:45;;;;;;;49.73;26.33;;;;;;;3.39;75.28;99686.52;125414;1096;104509;-74
2020/12/16 16:54:14;;;;;;;51.23;27.57;;;;;;;3.40;75.25;99690.88;125457;1096;104426;-73
2020/12/16 16:56:45;;;;;;;47.17;26.17;;;;;;;3.41;75.36;99689.97;125562;1102;104618;-73
2020/12/16 16:59:15;;;;;;;52.50;27.95;;;;;;;3.41;75.21;99695.22;125686;1101;104475;-73
2020/12/16 17:01:45;;;;;;;53.77;28.80;;;;;;;3.36;75.09;99691.88;125911;1101;104460;-72
2020/12/16 17:04:13;;;;;;;53.03;27.10;;;;;;;3.37;75.56;99692.76;126013;1102;104558;-71
2020/12/16 17:06:41;;;;;;;55.50;30.63;;;;;;;3.38;75.10;99691.84;125964;1096;104436;-72
2020/12/16 17:09:10;;;;;;;50.97;27.87;;;;;;;3.38;75.82;99690.06;125884;1096;103948;-71
2020/12/16 17:11:40;;;;;;;54.20;30.30;;;;;;;3.38;75.52;99691.84;125852;1097;104691;-72
2020/12/16 17:14:08;;;;;;;55.20;29.07;;;;;;;3.39;75.50;99697.05;125530;1096;104528;-72
2020/12/16 17:16:36;;;;;;;54.37;29.93;;;;;;;3.38;75.20;99692.70;125589;1095;104652;-73
2020/12/16 17:19:05;;;;;;;57.97;31.33;;;;;;;3.38;75.56;99694.48;125799;1097;104624;-73
2020/12/16 17:21:38;;;;;;;57.87;30.60;;;;;;;3.39;75.56;99688.31;125808;1097;104638;-72
2020/12/16 17:24:09;;;;;;;53.20;29.70;;;;;;;3.35;75.57;99684.06;125819;1097;104593;-74
2020/12/16 17:26:37;;;;;;;52.40;29.77;;;;;;;3.35;75.57;99681.43;125815;1096;104896;-72
2020/12/16 17:29:05;;;;;;;48.53;25.83;;;;;;;3.32;75.13;99678.90;125867;1097;104522;-72
2020/12/16 17:31:34;;;;;;;52.37;29.10;;;;;;;3.26;75.21;99679.97;125840;1097;104419;-73
2020/12/16 17:34:05;;;;;;;50.57;27.90;;;;;;;3.26;75.11;99688.70;125882;1101;104484;-73
2020/12/16 17:36:34;;;;;;;55.90;27.73;;;;;;;3.25;75.46;99694.03;126490;1095;104432;-73
2020/12/16 17:39:02;;;;;;;51.25;27.65;;;;;;;3.25;75.32;99691.40;125806;1097;104475;-72
2020/12/16 17:41:29;;;;;;;52.50;27.87;;;;;;;3.24;75.06;99693.15;125819;1097;104442;-72
2020/12/16 17:43:58;;;;;;;50.73;27.90;;;;;;;3.27;75.72;99697.44;125809;1101;104414;-72
2020/12/16 17:46:28;;;;;;;51.20;27.95;;;;;;;3.25;75.25;99700.12;126463;1097;104432;-72
2020/12/16 17:49:00;;;;;;;55.40;29.27;;;;;;;3.27;75.11;99700.06;125814;1097;104503;-72
2020/12/16 17:51:29;;;;;;;55.63;29.77;;;;;;;3.29;75.12;99706.14;125845;1097;104384;-73
2020/12/16 17:53:58;;;;;;;55.63;30.90;;;;;;;3.30;75.17;99707.86;125838;1097;104516;-74
2020/12/16 17:56:25;;;;;;;60.40;31.90;;;;;;;3.32;75.10;99702.56;125823;1101;104935;-71
2020/12/16 17:58:52;;;;;;;56.18;31.55;;;;;;;3.31;75.07;99701.69;125875;1097;104551;-73
2020/12/16 18:01:22;;;;;;;68.67;36.67;;;;;;;3.30;75.02;99713.11;125901;1097;104468;-71
2020/12/16 18:03:50;;;;;;;72.30;40.10;;;;;;;3.30;75.14;99701.75;125827;1097;104436;-73
2020/12/16 18:06:17;;;;;;;74.60;39.80;;;;;;;3.26;75.11;99708.89;126721;1093;104493;-72
2020/12/16 18:08:47;;;;;;;69.37;36.80;;;;;;;3.26;74.92;99712.37;125883;1097;104417;-73
2020/12/16 18:11:14;;;;;;;66.20;34.77;;;;;;;3.26;74.87;99707.11;125865;1097;104644;-73
2020/12/16 18:13:43;;;;;;;67.00;37.57;;;;;;;3.24;75.31;99714.19;127736;1101;102604;-73
2020/12/16 18:16:11;;;;;;;78.47;42.50;;;;;;;3.25;75.09;99717.69;127194;1096;103321;-73
2020/12/16 18:18:39;;;;;;;78.67;44.23;;;;;;;3.25;75.11;99729.05;126045;1101;104440;-72
2020/12/16 18:21:06;;;;;;;82.78;43.58;;;;;;;3.26;75.07;99727.30;125877;1101;104426;-73
2020/12/16 18:23:34;;;;;;;77.93;42.50;;;;;;;3.24;75.57;99727.33;125875;1097;104420;-72
2020/12/16 18:26:02;;;;;;;78.25;43.13;;;;;;;3.23;75.46;99722.98;125803;1097;104445;-73
2020/12/16 18:28:29;;;;;;;78.47;43.87;;;;;;;3.21;75.34;99723.95;125806;1096;104564;-72
2020/12/16 18:30:59;;;;;;;82.73;42.07;;;;;;;3.19;75.51;99723.98;125807;1093;104678;-72
2020/12/16 18:33:26;;;;;;;73.53;39.00;;;;;;;3.17;75.13;99735.47;125726;1097;104539;-74
2020/12/16 18:35:55;;;;;;;71.20;38.30;;;;;;;3.14;75.28;99739.04;125596;1095;104565;-71
2020/12/16 18:38:26;;;;;;;72.10;38.93;;;;;;;3.10;75.36;99735.66;125726;1097;104548;-76
2020/12/16 18:40:58;;;;;;;73.87;40.03;;;;;;;3.06;75.07;99743.67;125778;1097;104490;-74
2020/12/16 18:43:27;;;;;;;68.93;37.57;;;;;;;3.03;75.20;99741.16;125728;1097;104419;-75
2020/12/16 18:45:54;;;;;;;63.33;34.90;;;;;;;3.03;75.03;99741.16;125606;1096;104550;-74
2020/12/16 18:48:46;;;;;;;66.80;35.97;;;;;;;2.99;75.41;99745.64;125740;1097;104552;-76
2020/12/16 18:51:25;;;;;;;65.37;35.47;;;;;;;2.98;75.05;99739.53;125767;1097;104417;-75
2020/12/16 18:54:04;;;;;;;60.70;33.40;;;;;;;2.95;75.13;99744.88;125747;1097;104434;-73
2020/12/16 18:56:39;;;;;;;58.57;32.70;;;;;;;2.93;75.12;99737.94;125730;1097;104507;-77
2020/12/16 18:59:06;;;;;;;57.90;33.13;;;;;;;2.93;75.40;99744.06;125808;1097;104523;-76
2020/12/16 19:01:36;;;;;;;60.70;31.73;;;;;;;2.93;75.57;99745.81;125737;1097;104423;-75
2020/12/16 19:04:03;;;;;;;63.00;33.77;;;;;;;2.90;75.65;99744.16;125698;1097;104420;-75
2020/12/16 19:06:30;;;;;;;63.25;34.13;;;;;;;2.90;75.09;99748.53;125641;1097;104557;-75
2020/12/16 19:09:00;;;;;;;64.27;36.83;;;;;;;2.90;75.38;99741.53;125730;1097;104488;-76
2020/12/16 19:11:28;;;;;;;66.07;36.67;;;;;;;2.91;75.43;99752.89;126027;1096;104417;-71
2020/12/16 19:13:56;;;;;;;68.50;38.10;;;;;;;2.89;75.07;99745.06;125721;1097;104557;-73
2020/12/16 19:16:36;;;;;;;74.63;38.73;;;;;;;2.89;75.55;99757.33;125652;1097;104420;-75
2020/12/16 19:19:04;;;;;;;79.47;39.87;;;;;;;2.89;75.42;99752.07;125778;1096;104564;-73
2020/12/16 19:21:42;;;;;;;74.40;38.90;;;;;;;2.87;75.73;99753.88;125811;1097;104877;-73
2020/12/16 19:24:11;;;;;;;69.47;36.43;;;;;;;2.82;75.48;99754.03;125717;1096;104529;-72
2020/12/16 19:26:49;;;;;;;65.85;35.15;;;;;;;2.81;74.80;99761.07;125705;1097;104545;-72
2020/12/16 19:29:19;;;;;;;77.60;37.87;;;;;;;2.81;75.13;99761.07;125728;1097;104487;-73
2020/12/16 19:31:47;;;;;;;73.73;37.23;;;;;;;2.82;75.54;99762.79;125770;1101;104478;-73
2020/12/16 19:34:15;;;;;;;74.60;39.07;;;;;;;2.83;75.07;99761.01;125726;1097;104474;-75
2020/12/16 19:36:49;;;;;;;77.50;37.13;;;;;;;2.83;74.83;99763.64;125735;1097;104914;-76
2020/12/16 19:39:17;;;;;;;;;;;;;;;2.84;75.74;99762.73;125931;1097;104478;-76
2020/12/16 19:41:45;;;;;;;71.20;36.20;;;;;;;2.85;74.75;99768.86;125746;1097;104410;-77
2020/12/16 19:44:15;;;;;;;70.03;34.60;;;;;;;2.86;75.39;99770.55;125728;1096;104510;-76
2020/12/16 19:46:52;;;;;;;72.80;36.47;;;;;;;2.86;75.10;99767.92;125738;1096;105047;-74
2020/12/16 19:49:20;;;;;;;69.50;35.50;;;;;;;2.81;75.10;99773.33;125809;1097;104433;-74
2020/12/16 19:51:49;;;;;;;70.57;36.47;;;;;;;2.80;75.00;99775.11;125773;1097;104583;-70
2020/12/16 19:54:16;;;;;;;56.33;28.90;;;;;;;2.77;74.97;99782.20;125641;1097;104554;-74
2020/12/16 19:56:48;;;;;;;63.27;29.77;;;;;;;2.72;74.76;99770.97;125722;1101;104567;-73
2020/12/16 19:59:16;;;;;;;62.97;34.57;;;;;;;2.70;75.27;99778.91;125634;1101;104442;-75
2020/12/16 20:01:47;;;;;;;65.03;31.90;;;;;;;2.68;75.77;99772.83;125675;1101;104884;-75
2020/12/16 20:04:15;;;;;;;66.80;34.55;;;;;;;2.64;75.65;99777.33;125915;1101;104440;-74
2020/12/16 20:06:49;;;;;;;63.03;33.07;;;;;;;2.62;75.07;99776.51;125903;1102;104478;-74
2020/12/16 20:09:20;;;;;;;65.17;32.60;;;;;;;2.58;75.34;99780.13;125843;1101;104414;-75
2020/12/16 20:11:49;;;;;;;65.03;33.07;;;;;;;2.56;74.96;99781.94;125872;1101;104891;-74
2020/12/16 20:14:17;;;;;;;64.20;32.97;;;;;;;2.52;75.47;99775.89;126636;1101;103445;-75
2020/12/16 20:16:53;;;;;;;64.00;33.90;;;;;;;2.51;74.90;99776.79;125891;1101;104471;-74
2020/12/16 20:19:26;;;;;;;61.37;31.83;;;;;;;2.48;74.91;99774.25;125917;1101;104480;-75
2020/12/16 20:21:55;;;;;;;67.17;34.93;;;;;;;2.44;75.16;99777.89;125909;1101;104549;-74
2020/12/16 20:24:25;;;;;;;68.00;34.93;;;;;;;2.43;75.00;99781.42;125692;1097;104502;-75
2020/12/16 20:26:54;;;;;;;62.67;31.90;;;;;;;2.34;75.10;99779.89;125702;1101;104478;-75
2020/12/16 20:29:24;;;;;;;63.70;31.77;;;;;;;2.27;75.22;99783.58;125648;1097;104628;-75